createdAt,value
2023-05-22T00:00:39.264Z,12.47
2023-05-22T00:03:08.604Z,11.57
2023-05-22T00:05:39.356Z,13.33
2023-05-22T00:08:11.800Z,12.07
2023-05-22T00:10:40.399Z,12.40
2023-05-22T00:13:08.942Z,12.27
2023-05-22T00:15:37.367Z,12.23
2023-05-22T00:18:06.424Z,11.63
2023-05-22T00:20:38.843Z,12.60
2023-05-22T00:23:12.190Z,12.10
2023-05-22T00:25:41.504Z,12.57
2023-05-22T00:28:09.876Z,11.93
2023-05-22T00:30:38.919Z,12.33
2023-05-22T00:33:07.764Z,12.00
2023-05-22T00:35:36.360Z,12.13
2023-05-22T00:38:05.457Z,12.10
2023-05-22T00:40:35.302Z,11.97
2023-05-22T00:43:08.482Z,12.17
2023-05-22T00:45:37.305Z,12.27
2023-05-22T00:48:06.197Z,13.00
2023-05-22T00:50:34.695Z,13.10
2023-05-22T00:53:03.180Z,12.50
2023-05-22T00:55:31.640Z,13.07
2023-05-22T00:58:01.640Z,14.17
2023-05-22T01:00:30.060Z,12.33
2023-05-22T01:02:58.486Z,13.70
2023-05-22T01:05:26.943Z,12.53
2023-05-22T01:07:57.180Z,12.87
2023-05-22T01:10:25.846Z,13.33
2023-05-22T01:12:57.199Z,14.33
2023-05-22T01:15:28.627Z,15.23
2023-05-22T01:18:00.256Z,14.43
2023-05-22T01:20:30.312Z,14.43
2023-05-22T01:23:17.748Z,14.67
2023-05-22T01:25:53.026Z,14.30
2023-05-22T01:28:26.611Z,14.73
2023-05-22T01:30:58.263Z,14.23
2023-05-22T01:33:27.512Z,14.23
2023-05-22T01:35:56.275Z,13.93
2023-05-22T01:38:24.733Z,14.40
2023-05-22T01:40:53.398Z,14.33
2023-05-22T01:43:21.902Z,14.60
2023-05-22T01:45:50.483Z,14.07
2023-05-22T01:48:20.512Z,14.40
2023-05-22T01:50:49.692Z,13.80
2023-05-22T01:53:19.635Z,15.03
2023-05-22T01:55:48.480Z,14.37
2023-05-22T01:58:18.634Z,14.97
2023-05-22T02:00:47.428Z,14.40
2023-05-22T02:03:17.706Z,14.40
2023-05-22T02:05:47.772Z,13.87
2023-05-22T02:08:16.370Z,14.27
2023-05-22T02:10:44.918Z,15.07
2023-05-22T02:13:13.537Z,14.20
2023-05-22T02:15:42.135Z,15.77
2023-05-22T02:18:13.105Z,14.80
2023-05-22T02:20:41.782Z,16.17
2023-05-22T02:23:11.973Z,14.83
2023-05-22T02:25:40.899Z,16.10
2023-05-22T02:28:09.310Z,16.23
2023-05-22T02:30:37.921Z,16.67
2023-05-22T02:33:06.698Z,16.67
2023-05-22T02:35:35.256Z,16.30
2023-05-22T02:38:03.766Z,16.27
2023-05-22T02:40:33.634Z,17.07
2023-05-22T02:43:02.122Z,16.77
2023-05-22T02:45:30.623Z,16.17
2023-05-22T02:48:01.563Z,16.70
2023-05-22T02:50:30.114Z,18.97
2023-05-22T02:52:58.722Z,17.67
2023-05-22T02:55:27.219Z,17.13
2023-05-22T02:57:57.089Z,17.07
2023-05-22T03:00:25.715Z,16.03
2023-05-22T03:02:54.266Z,17.10
2023-05-22T03:05:23.164Z,17.83
2023-05-22T03:07:52.805Z,16.20
2023-05-22T03:10:21.368Z,16.00
2023-05-22T03:12:51.805Z,18.10
2023-05-22T03:15:21.808Z,16.77
2023-05-22T03:17:50.275Z,16.67
2023-05-22T03:20:19.096Z,16.03
2023-05-22T03:22:47.746Z,16.20
2023-05-22T03:25:16.189Z,16.83
2023-05-22T03:27:44.573Z,16.80
2023-05-22T03:30:14.051Z,16.53
2023-05-22T03:32:43.821Z,16.03
2023-05-22T03:35:13.187Z,15.77
2023-05-22T03:37:41.609Z,14.87
2023-05-22T03:40:10.601Z,15.90
2023-05-22T03:42:39.042Z,14.73
2023-05-22T03:45:08.207Z,14.47
2023-05-22T03:47:36.747Z,15.70
2023-05-22T03:50:06.909Z,15.10
2023-05-22T03:52:35.687Z,15.43
2023-05-22T03:55:04.452Z,15.80
2023-05-22T03:57:32.929Z,15.60
2023-05-22T04:00:09.471Z,14.70
2023-05-22T04:02:39.947Z,14.43
2023-05-22T04:05:10.984Z,14.27
2023-05-22T04:07:39.494Z,14.20
2023-05-22T04:10:08.439Z,15.27
2023-05-22T04:12:39.844Z,14.23
2023-05-22T04:15:09.445Z,15.03
2023-05-22T04:17:41.215Z,14.50
2023-05-22T04:20:12.234Z,14.80
2023-05-22T04:22:41.403Z,14.33
2023-05-22T04:25:10.367Z,14.93
2023-05-22T04:27:38.813Z,14.20
2023-05-22T04:30:08.952Z,14.77
2023-05-22T04:32:38.298Z,14.20
2023-05-22T04:35:07.245Z,15.37
2023-05-22T04:37:37.277Z,15.47
2023-05-22T04:40:07.533Z,15.33
2023-05-22T04:42:37.422Z,15.00
2023-05-22T04:45:06.147Z,15.93
2023-05-22T04:47:34.807Z,15.27
2023-05-22T04:50:03.944Z,16.40
2023-05-22T04:52:32.527Z,16.00
2023-05-22T04:55:04.538Z,16.03
2023-05-22T04:57:34.298Z,17.43
2023-05-22T05:00:04.391Z,17.00
2023-05-22T05:02:32.983Z,17.80
2023-05-22T05:05:01.609Z,18.47
2023-05-22T05:07:30.067Z,18.23
2023-05-22T05:09:58.519Z,18.47
2023-05-22T05:12:28.332Z,20.70
2023-05-22T05:14:56.991Z,19.97
2023-05-22T05:17:25.517Z,21.60
2023-05-22T05:19:54.593Z,21.93
2023-05-22T05:22:23.101Z,21.00
2023-05-22T05:24:58.051Z,22.43
2023-05-22T05:27:30.841Z,21.87
2023-05-22T05:29:59.537Z,22.80
2023-05-22T05:32:28.027Z,22.97
2023-05-22T05:34:56.879Z,22.00
2023-05-22T05:37:26.093Z,22.30
2023-05-22T05:39:54.530Z,21.97
2023-05-22T05:42:23.119Z,23.57
2023-05-22T05:44:52.852Z,22.60
2023-05-22T05:47:24.145Z,21.00
2023-05-22T05:49:52.862Z,22.23
2023-05-22T05:52:21.299Z,22.97
2023-05-22T05:54:50.121Z,21.83
2023-05-22T05:57:18.550Z,20.27
2023-05-22T05:59:47.123Z,22.73
2023-05-22T06:02:18.208Z,22.00
2023-05-22T06:04:48.471Z,22.10
2023-05-22T06:07:17.629Z,22.50
2023-05-22T06:09:46.150Z,23.83
2023-05-22T06:12:14.686Z,22.47
2023-05-22T06:14:43.361Z,20.53
2023-05-22T06:17:11.852Z,20.77
2023-05-22T06:19:42.349Z,21.50
2023-05-22T06:22:11.020Z,20.43
2023-05-22T06:24:39.684Z,19.53
2023-05-22T06:27:08.508Z,19.90
2023-05-22T06:29:37.335Z,19.93
2023-05-22T06:32:06.082Z,20.47
2023-05-22T06:34:34.576Z,20.03
2023-05-22T06:37:04.468Z,19.37
2023-05-22T06:39:33.164Z,19.10
2023-05-22T06:42:01.672Z,19.43
2023-05-22T06:44:30.198Z,22.07
2023-05-22T06:46:58.987Z,22.03
2023-05-22T06:49:27.588Z,21.30
2023-05-22T06:51:59.173Z,20.23
2023-05-22T06:54:29.610Z,20.10
2023-05-22T06:56:58.201Z,20.07
2023-05-22T06:59:26.970Z,20.60
2023-05-22T07:01:55.702Z,18.87
2023-05-22T07:04:24.356Z,19.87
2023-05-22T07:06:52.745Z,19.37
2023-05-22T07:09:21.437Z,19.73
2023-05-22T07:11:51.312Z,18.60
2023-05-22T07:14:19.844Z,19.40
2023-05-22T07:16:48.365Z,18.67
2023-05-22T07:19:16.926Z,18.60
2023-05-22T07:21:48.363Z,18.20
2023-05-22T07:24:16.912Z,17.83
2023-05-22T07:26:46.660Z,18.80
2023-05-22T07:29:16.699Z,19.27
2023-05-22T07:31:45.332Z,19.00
2023-05-22T07:34:13.912Z,17.87
2023-05-22T07:36:42.900Z,18.03
2023-05-22T07:39:11.554Z,18.60
2023-05-22T07:41:40.410Z,16.90
2023-05-22T07:44:09.011Z,18.70
2023-05-22T07:46:39.152Z,17.10
2023-05-22T07:49:07.944Z,17.23
2023-05-22T07:51:36.652Z,18.83
2023-05-22T07:54:05.147Z,18.07
2023-05-22T07:56:34.424Z,17.97
2023-05-22T07:59:02.963Z,16.63
2023-05-22T08:01:31.493Z,17.10
2023-05-22T08:04:01.813Z,17.20
2023-05-22T08:06:31.156Z,16.83
2023-05-22T08:09:00.151Z,17.63
2023-05-22T08:11:28.584Z,16.67
2023-05-22T08:13:57.116Z,16.27
2023-05-22T08:16:26.118Z,15.73
2023-05-22T08:18:54.785Z,16.80
2023-05-22T08:21:24.684Z,16.20
2023-05-22T08:23:53.156Z,15.80
2023-05-22T08:26:21.658Z,15.30
2023-05-22T08:28:50.071Z,14.33
2023-05-22T08:31:18.560Z,14.00
2023-05-22T08:33:47.059Z,13.43
2023-05-22T08:36:15.531Z,13.30
2023-05-22T08:38:45.511Z,13.37
2023-05-22T08:41:17.247Z,15.63
2023-05-22T08:43:45.886Z,13.77
2023-05-22T08:46:16.342Z,14.33
2023-05-22T08:48:45.068Z,15.73
2023-05-22T08:51:14.563Z,15.93
2023-05-22T08:53:43.128Z,14.93
2023-05-22T08:56:12.961Z,13.83
2023-05-22T08:58:41.757Z,13.93
2023-05-22T09:01:10.217Z,15.60
2023-05-22T09:03:38.645Z,16.17
2023-05-22T09:06:09.406Z,15.37
2023-05-22T09:08:38.021Z,16.23
2023-05-22T09:11:06.632Z,14.17
2023-05-22T09:13:36.608Z,15.00
2023-05-22T09:16:11.052Z,13.23
2023-05-22T09:18:40.671Z,12.73
2023-05-22T09:21:21.710Z,12.03
2023-05-22T09:24:01.754Z,12.37
2023-05-22T09:26:30.394Z,12.03
2023-05-22T09:29:00.786Z,11.43
2023-05-22T09:31:30.358Z,11.00
2023-05-22T09:33:58.973Z,10.67
2023-05-22T09:36:33.400Z,11.07
2023-05-22T09:39:02.632Z,10.80
2023-05-22T09:41:31.450Z,10.17
2023-05-22T09:44:11.668Z,10.67
2023-05-22T09:46:43.325Z,10.90
2023-05-22T09:49:15.079Z,9.77
2023-05-22T09:51:45.979Z,10.97
2023-05-22T09:54:14.439Z,10.83
2023-05-22T09:56:42.872Z,10.00
2023-05-22T09:59:12.861Z,10.90
2023-05-22T10:01:42.648Z,10.10
2023-05-22T10:04:12.060Z,11.07
2023-05-22T10:06:40.607Z,11.20
2023-05-22T10:09:09.252Z,11.03
2023-05-22T10:11:37.654Z,11.50
2023-05-22T10:14:07.681Z,10.97
2023-05-22T10:16:38.446Z,10.93
2023-05-22T10:19:08.573Z,11.67
2023-05-22T10:21:38.179Z,10.60
2023-05-22T10:24:06.908Z,11.40
2023-05-22T10:26:38.250Z,12.03
2023-05-22T10:29:07.134Z,11.83
2023-05-22T10:31:40.574Z,12.00
2023-05-22T10:34:10.005Z,10.87
2023-05-22T10:36:40.981Z,10.50
2023-05-22T10:39:12.829Z,10.67
2023-05-22T10:41:41.992Z,11.03
2023-05-22T10:44:10.929Z,10.70
2023-05-22T10:46:40.786Z,10.90
2023-05-22T10:49:09.490Z,10.07
2023-05-22T10:51:40.788Z,10.27
2023-05-22T10:54:09.274Z,10.43
2023-05-22T10:56:38.282Z,10.70
2023-05-22T10:59:08.327Z,9.63
2023-05-22T11:01:38.778Z,10.10
2023-05-22T11:04:13.459Z,9.57
2023-05-22T11:06:42.472Z,10.80
2023-05-22T11:09:29.092Z,10.70
2023-05-22T11:12:17.173Z,10.73
2023-05-22T11:14:45.956Z,10.77
2023-05-22T11:17:14.827Z,11.27
2023-05-22T11:19:44.794Z,11.63
2023-05-22T11:22:13.939Z,11.80
2023-05-22T11:24:42.525Z,11.50
2023-05-22T11:27:13.084Z,10.90
2023-05-22T11:29:44.605Z,10.90
2023-05-22T11:32:17.418Z,11.00
2023-05-22T11:34:50.184Z,12.43
2023-05-22T11:37:20.040Z,13.73
2023-05-22T11:39:52.319Z,12.27
2023-05-22T11:42:20.981Z,12.37
2023-05-22T11:44:49.499Z,13.90
2023-05-22T11:47:18.048Z,13.03
2023-05-22T11:49:48.073Z,14.37
2023-05-22T11:52:18.000Z,12.40
2023-05-22T11:54:49.044Z,12.60
2023-05-22T11:57:17.614Z,13.60
2023-05-22T11:59:47.599Z,15.67
2023-05-22T12:02:16.163Z,14.60
2023-05-22T12:04:44.539Z,14.63
2023-05-22T12:07:14.719Z,14.93
2023-05-22T12:09:43.948Z,15.83
2023-05-22T12:12:12.483Z,14.90
2023-05-22T12:14:40.903Z,15.57
2023-05-22T12:17:09.392Z,14.87
2023-05-22T12:19:39.071Z,14.77
2023-05-22T12:22:08.684Z,15.13
2023-05-22T12:24:41.981Z,15.23
2023-05-22T12:27:10.964Z,15.47
2023-05-22T12:29:39.444Z,15.40
2023-05-22T12:32:09.175Z,17.57
2023-05-22T12:34:37.930Z,16.17
2023-05-22T12:37:09.260Z,14.83
2023-05-22T12:39:38.368Z,15.37
2023-05-22T12:42:09.617Z,15.13
2023-05-22T12:44:38.795Z,13.07
2023-05-22T12:47:07.910Z,12.80
2023-05-22T12:49:36.476Z,12.37
2023-05-22T12:52:05.005Z,11.13
2023-05-22T12:54:33.536Z,11.40
2023-05-22T12:57:02.987Z,10.77
2023-05-22T12:59:34.126Z,10.37
2023-05-22T13:02:03.557Z,9.30
2023-05-22T13:04:32.431Z,9.47
2023-05-22T13:07:01.280Z,10.20
2023-05-22T13:09:30.974Z,9.43
2023-05-22T13:12:00.598Z,9.63
2023-05-22T13:14:30.254Z,9.13
2023-05-22T13:17:01.315Z,8.70
2023-05-22T13:19:30.571Z,9.03
2023-05-22T13:21:59.437Z,8.33
2023-05-22T13:24:28.358Z,8.60
2023-05-22T13:26:56.929Z,7.57
2023-05-22T13:29:28.261Z,7.60
2023-05-22T13:31:57.046Z,8.23
2023-05-22T13:34:27.476Z,7.77
2023-05-22T13:36:56.613Z,7.33
2023-05-22T13:39:25.096Z,7.53
2023-05-22T13:41:54.049Z,7.00
2023-05-22T13:44:22.751Z,6.97
2023-05-22T13:46:51.683Z,7.33
2023-05-22T13:49:20.387Z,6.97
2023-05-22T13:51:50.728Z,6.83
2023-05-22T13:54:20.035Z,7.03
2023-05-22T13:56:48.632Z,6.43
2023-05-22T13:59:18.596Z,6.90
2023-05-22T14:01:47.390Z,6.80
2023-05-22T14:04:16.530Z,6.97
2023-05-22T14:06:45.291Z,6.57
2023-05-22T14:09:15.556Z,6.80
2023-05-22T14:11:46.092Z,6.70
2023-05-22T14:14:15.669Z,6.40
2023-05-22T14:16:44.745Z,7.20
2023-05-22T14:19:15.112Z,6.60
2023-05-22T14:21:53.574Z,7.10
2023-05-22T14:24:23.577Z,6.83
2023-05-22T14:26:53.424Z,7.30
2023-05-22T14:29:22.607Z,7.10
2023-05-22T14:31:52.114Z,6.33
2023-05-22T14:34:21.331Z,6.53
2023-05-22T14:36:50.485Z,6.87
2023-05-22T14:39:19.217Z,7.47
2023-05-22T14:41:49.450Z,7.17
2023-05-22T14:44:22.794Z,7.00
2023-05-22T14:46:53.740Z,6.37
2023-05-22T14:49:22.877Z,6.33
2023-05-22T14:51:51.743Z,7.00
2023-05-22T14:54:21.665Z,6.73
2023-05-22T14:56:52.053Z,6.13
2023-05-22T14:59:20.986Z,6.30
2023-05-22T15:01:50.587Z,7.33
2023-05-22T15:04:19.696Z,6.80
2023-05-22T15:06:48.337Z,6.50
2023-05-22T15:09:17.190Z,7.70
2023-05-22T15:11:49.476Z,7.57
2023-05-22T15:14:20.569Z,6.97
2023-05-22T15:16:50.330Z,7.00
2023-05-22T15:19:19.285Z,7.10
2023-05-22T15:21:48.313Z,7.60
2023-05-22T15:24:17.381Z,7.10
2023-05-22T15:26:46.398Z,7.50
2023-05-22T15:29:14.904Z,6.77
2023-05-22T15:31:45.840Z,6.43
2023-05-22T15:34:15.210Z,6.00
2023-05-22T15:36:44.263Z,5.53
2023-05-22T15:39:13.321Z,6.13
2023-05-22T15:41:46.636Z,5.87
2023-05-22T15:44:20.936Z,6.00
2023-05-22T15:46:50.960Z,6.30
2023-05-22T15:49:19.562Z,6.13
2023-05-22T15:51:48.914Z,5.97
2023-05-22T15:54:18.101Z,6.20
2023-05-22T15:56:46.632Z,6.00
2023-05-22T15:59:15.874Z,6.10
2023-05-22T16:01:45.472Z,6.03
2023-05-22T16:04:16.016Z,6.20
2023-05-22T16:06:45.212Z,5.97
2023-05-22T16:09:16.334Z,6.13
2023-05-22T16:11:45.224Z,5.47
2023-05-22T16:14:14.062Z,6.10
2023-05-22T16:16:43.615Z,5.47
2023-05-22T16:19:12.052Z,5.70
2023-05-22T16:21:42.063Z,5.70
2023-05-22T16:24:11.122Z,5.60
2023-05-22T16:26:39.703Z,6.43
2023-05-22T16:29:08.938Z,6.50
2023-05-22T16:31:37.513Z,6.47
2023-05-22T16:34:06.145Z,6.77
2023-05-22T16:36:34.654Z,6.97
2023-05-22T16:39:04.567Z,7.03
2023-05-22T16:41:32.915Z,6.97
2023-05-22T16:44:01.485Z,7.53
2023-05-22T16:46:30.040Z,6.23
2023-05-22T16:48:58.600Z,7.10
2023-05-22T16:51:27.423Z,6.67
2023-05-22T16:53:56.230Z,6.83
2023-05-22T16:56:26.687Z,7.17
2023-05-22T16:58:56.774Z,7.50
2023-05-22T17:01:26.196Z,7.50
2023-05-22T17:03:56.044Z,7.30
2023-05-22T17:06:25.707Z,7.60
2023-05-22T17:08:55.390Z,7.47
2023-05-22T17:11:26.061Z,8.03
2023-05-22T17:13:56.973Z,7.80
2023-05-22T17:16:25.974Z,7.87
2023-05-22T17:18:55.237Z,8.10
2023-05-22T17:21:25.262Z,8.70
2023-05-22T17:23:54.515Z,8.33
2023-05-22T17:26:23.509Z,8.63
2023-05-22T17:28:52.437Z,7.77
2023-05-22T17:31:23.040Z,8.47
2023-05-22T17:33:51.526Z,8.50
2023-05-22T17:36:21.566Z,8.70
2023-05-22T17:38:51.946Z,7.43
2023-05-22T17:41:21.117Z,7.90
2023-05-22T17:43:50.869Z,9.17
2023-05-22T17:46:19.966Z,8.17
2023-05-22T17:48:51.477Z,8.30
2023-05-22T17:51:20.785Z,8.77
2023-05-22T17:53:49.519Z,9.50
2023-05-22T17:56:18.811Z,9.40
2023-05-22T17:58:47.913Z,9.53
2023-05-22T18:01:17.443Z,10.93
2023-05-22T18:03:46.528Z,10.73
2023-05-22T18:06:17.033Z,9.90
2023-05-22T18:08:45.895Z,10.53
2023-05-22T18:11:14.668Z,10.63
2023-05-22T18:13:46.603Z,9.77
2023-05-22T18:16:15.835Z,10.17
2023-05-22T18:18:44.420Z,10.77
2023-05-22T18:21:13.147Z,10.47
2023-05-22T18:23:46.113Z,10.33
2023-05-22T18:26:15.605Z,10.30
2023-05-22T18:28:44.873Z,10.63
2023-05-22T18:31:14.119Z,9.73
2023-05-22T18:33:44.884Z,11.37
2023-05-22T18:36:15.080Z,10.33
2023-05-22T18:38:46.225Z,12.20
2023-05-22T18:41:14.837Z,10.73
2023-05-22T18:43:43.933Z,11.60
2023-05-22T18:46:12.872Z,11.23
2023-05-22T18:48:41.404Z,12.00
2023-05-22T18:51:10.157Z,12.03
2023-05-22T18:53:38.969Z,12.90
2023-05-22T18:56:09.092Z,12.27
2023-05-22T18:58:41.429Z,11.67
2023-05-22T19:01:10.488Z,11.90
2023-05-22T19:03:40.048Z,12.87
2023-05-22T19:06:09.177Z,12.33
2023-05-22T19:08:37.878Z,12.43
2023-05-22T19:11:08.075Z,12.67
2023-05-22T19:13:38.852Z,12.83
2023-05-22T19:16:11.198Z,11.90
2023-05-22T19:18:41.134Z,13.50
2023-05-22T19:21:10.596Z,11.87
2023-05-22T19:23:39.397Z,12.03
2023-05-22T19:26:08.455Z,12.53
2023-05-22T19:28:39.422Z,12.97
2023-05-22T19:31:08.652Z,12.57
2023-05-22T19:33:38.547Z,12.83
2023-05-22T19:36:08.033Z,12.70
2023-05-22T19:38:37.091Z,12.93
2023-05-22T19:41:06.420Z,13.43
2023-05-22T19:43:36.564Z,12.83
2023-05-22T19:46:09.089Z,12.03
2023-05-22T19:48:37.629Z,12.53
2023-05-22T19:51:07.132Z,12.27
2023-05-22T19:53:35.753Z,13.37
2023-05-22T19:56:04.502Z,14.50
2023-05-22T19:58:33.120Z,13.63
2023-05-22T20:01:01.722Z,14.27
2023-05-22T20:03:31.723Z,14.97
2023-05-22T20:06:00.636Z,15.47
2023-05-22T20:08:29.227Z,14.97
2023-05-22T20:10:57.684Z,15.23
2023-05-22T20:13:26.216Z,15.60
2023-05-22T20:15:54.905Z,15.80
2023-05-22T20:18:23.629Z,13.40
2023-05-22T20:20:53.677Z,14.03
2023-05-22T20:23:22.188Z,13.10
2023-05-22T20:25:50.924Z,13.70
2023-05-22T20:28:19.474Z,13.80
2023-05-22T20:30:47.938Z,13.30
2023-05-22T20:33:17.722Z,12.90
2023-05-22T20:35:48.864Z,12.83
2023-05-22T20:38:20.350Z,12.37
2023-05-22T20:40:48.881Z,11.93
2023-05-22T20:43:18.651Z,11.37
2023-05-22T20:45:47.197Z,11.20
2023-05-22T20:48:16.719Z,11.83
2023-05-22T20:50:47.375Z,12.07
2023-05-22T20:53:15.863Z,12.23
2023-05-22T20:55:45.920Z,12.23
2023-05-22T20:58:17.613Z,12.00
2023-05-22T21:00:49.334Z,12.43
2023-05-22T21:03:18.061Z,12.67
2023-05-22T21:05:47.715Z,13.47
2023-05-22T21:08:16.466Z,11.87
2023-05-22T21:10:46.427Z,11.67
2023-05-22T21:13:15.213Z,12.37
2023-05-22T21:15:43.646Z,11.60
2023-05-22T21:18:12.371Z,12.67
2023-05-22T21:20:41.309Z,12.90
2023-05-22T21:23:09.985Z,12.27
2023-05-22T21:25:38.513Z,11.30
2023-05-22T21:28:11.733Z,11.17
2023-05-22T21:30:40.646Z,11.00
2023-05-22T21:33:09.521Z,11.10
2023-05-22T21:35:38.050Z,11.03
2023-05-22T21:38:06.625Z,9.93
2023-05-22T21:40:35.069Z,11.07
2023-05-22T21:43:03.590Z,10.47
2023-05-22T21:45:33.381Z,10.93
2023-05-22T21:48:01.934Z,10.20
2023-05-22T21:50:31.077Z,10.00
2023-05-22T21:52:59.631Z,9.90
2023-05-22T21:55:28.122Z,9.87
2023-05-22T21:57:57.216Z,9.40
2023-05-22T22:00:25.725Z,9.70
2023-05-22T22:02:57.345Z,9.50
2023-05-22T22:05:27.621Z,9.80
2023-05-22T22:07:56.132Z,10.10
2023-05-22T22:10:24.890Z,9.20
2023-05-22T22:12:53.411Z,9.37
2023-05-22T22:15:22.540Z,9.57
2023-05-22T22:17:52.436Z,9.30
2023-05-22T22:20:33.696Z,9.70
2023-05-22T22:23:11.769Z,10.17
2023-05-22T22:25:40.212Z,10.73
2023-05-22T22:28:08.839Z,10.90
2023-05-22T22:30:37.426Z,12.03
2023-05-22T22:33:06.518Z,11.23
2023-05-22T22:35:36.510Z,12.13
2023-05-22T22:38:04.910Z,11.50
2023-05-22T22:40:33.711Z,10.20
2023-05-22T22:43:02.107Z,9.93
2023-05-22T22:45:30.916Z,9.87
2023-05-22T22:48:00.722Z,10.13
2023-05-22T22:50:29.854Z,11.37
2023-05-22T22:52:59.691Z,11.67
2023-05-22T22:55:28.223Z,11.30
2023-05-22T22:57:57.311Z,11.77
2023-05-22T23:00:25.965Z,11.63
2023-05-22T23:02:54.610Z,12.20
2023-05-22T23:05:23.467Z,13.23
2023-05-22T23:07:51.989Z,13.10
2023-05-22T23:10:22.421Z,12.47
2023-05-22T23:12:50.998Z,15.27
2023-05-22T23:15:19.599Z,14.23
2023-05-22T23:17:50.162Z,13.50
2023-05-22T23:20:20.204Z,14.23
2023-05-22T23:22:48.641Z,14.37
2023-05-22T23:25:17.542Z,13.63
2023-05-22T23:27:47.449Z,14.03
2023-05-22T23:30:15.971Z,13.57
2023-05-22T23:32:44.554Z,13.13
2023-05-22T23:35:13.320Z,13.47
2023-05-22T23:37:41.760Z,13.40
2023-05-22T23:40:10.878Z,13.47
2023-05-22T23:42:39.254Z,13.67
2023-05-22T23:45:10.015Z,12.87
2023-05-22T23:47:38.893Z,12.57
2023-05-22T23:50:07.964Z,13.13
2023-05-22T23:52:36.724Z,11.63
2023-05-22T23:55:05.256Z,11.27
2023-05-22T23:57:33.653Z,11.23
